createdAt,value
2022-09-25T00:02:31.823Z,57.86
2022-09-25T00:05:03.975Z,57.97
2022-09-25T00:07:36.125Z,58.19
2022-09-25T00:10:09.417Z,58.27
2022-09-25T00:12:42.301Z,58.30
2022-09-25T00:15:14.671Z,58.41
2022-09-25T00:17:46.810Z,58.49
2022-09-25T00:20:24.334Z,58.61
2022-09-25T00:22:56.616Z,58.76
2022-09-25T00:25:28.821Z,58.81
2022-09-25T00:28:00.851Z,59.00
2022-09-25T00:30:33.003Z,59.13
2022-09-25T00:33:05.650Z,59.19
2022-09-25T00:35:38.020Z,59.33
2022-09-25T00:38:10.032Z,59.43
2022-09-25T00:40:42.581Z,59.43
2022-09-25T00:43:17.277Z,59.44
2022-09-25T00:45:50.045Z,59.64
2022-09-25T00:48:22.319Z,59.81
2022-09-25T00:50:57.803Z,59.91
2022-09-25T00:53:32.871Z,60.09
2022-09-25T00:56:06.621Z,60.21
2022-09-25T00:58:41.680Z,60.36
2022-09-25T01:01:14.414Z,60.37
2022-09-25T01:03:46.672Z,60.65
2022-09-25T01:06:20.097Z,60.70
2022-09-25T01:11:34.762Z,60.87
2022-09-25T01:14:10.446Z,60.82
2022-09-25T01:16:48.000Z,60.90
2022-09-25T01:19:38.506Z,60.90
2022-09-25T01:22:22.466Z,61.05
2022-09-25T01:25:12.078Z,61.09
2022-09-25T01:27:53.907Z,61.13
2022-09-25T01:30:26.170Z,61.26
2022-09-25T01:33:05.581Z,61.26
2022-09-25T01:35:45.205Z,61.33
2022-09-25T01:38:28.344Z,61.26
2022-09-25T01:41:06.406Z,61.30
2022-09-25T01:43:43.207Z,61.27
2022-09-25T01:46:20.303Z,61.23
2022-09-25T01:48:56.837Z,61.20
2022-09-25T01:51:33.402Z,61.33
2022-09-25T01:54:13.293Z,61.29
2022-09-25T01:56:51.853Z,61.24
2022-09-25T01:59:31.273Z,61.16
2022-09-25T02:02:07.175Z,61.22
2022-09-25T02:04:43.418Z,61.35
2022-09-25T02:07:22.422Z,61.34
2022-09-25T02:09:58.188Z,61.44
2022-09-25T02:12:35.498Z,61.37
2022-09-25T02:15:13.284Z,61.52
2022-09-25T02:18:08.137Z,61.56
2022-09-25T02:20:43.353Z,61.60
2022-09-25T02:23:24.331Z,61.58
2022-09-25T02:26:02.736Z,61.63
2022-09-25T02:28:35.526Z,61.80
2022-09-25T02:31:13.391Z,61.90
2022-09-25T02:33:45.616Z,61.87
2022-09-25T02:36:21.950Z,61.95
2022-09-25T02:38:56.941Z,61.92
2022-09-25T02:41:47.362Z,61.94
2022-09-25T02:44:32.649Z,61.87
2022-09-25T02:47:15.709Z,62.04
2022-09-25T02:49:55.677Z,62.15
2022-09-25T02:52:36.334Z,62.26
2022-09-25T02:55:13.878Z,62.31
2022-09-25T02:57:52.824Z,62.38
2022-09-25T03:00:25.066Z,62.47
2022-09-25T03:03:04.069Z,62.50
2022-09-25T03:05:37.418Z,62.62
2022-09-25T03:08:28.136Z,62.76
2022-09-25T03:11:00.751Z,62.92
2022-09-25T03:13:34.361Z,62.94
2022-09-25T03:16:10.344Z,63.11
2022-09-25T03:18:42.512Z,63.23
2022-09-25T03:21:14.954Z,63.43
2022-09-25T03:23:47.108Z,63.58
2022-09-25T03:26:19.594Z,63.72
2022-09-25T03:28:51.875Z,63.97
2022-09-25T03:31:24.025Z,64.07
2022-09-25T03:33:56.118Z,64.29
2022-09-25T03:36:30.251Z,64.46
2022-09-25T03:39:02.528Z,64.55
2022-09-25T03:41:36.096Z,64.63
2022-09-25T03:44:08.187Z,64.91
2022-09-25T03:46:40.280Z,64.88
2022-09-25T03:49:12.911Z,65.03
2022-09-25T03:51:45.319Z,65.05
2022-09-25T03:54:17.947Z,65.08
2022-09-25T03:56:49.954Z,65.09
2022-09-25T03:59:21.998Z,65.15
2022-09-25T04:01:54.135Z,65.27
2022-09-25T04:04:26.585Z,65.22
2022-09-25T04:06:58.805Z,65.38
2022-09-25T04:09:32.220Z,65.39
2022-09-25T04:12:07.293Z,65.54
2022-09-25T04:14:40.094Z,65.51
2022-09-25T04:17:12.511Z,65.62
2022-09-25T04:19:44.709Z,65.74
2022-09-25T04:22:16.789Z,65.84
2022-09-25T04:24:51.635Z,65.68
2022-09-25T04:27:24.634Z,65.64
2022-09-25T04:29:57.291Z,65.82
2022-09-25T04:32:47.125Z,65.75
2022-09-25T04:35:19.316Z,65.70
2022-09-25T04:37:51.388Z,65.77
2022-09-25T04:40:23.746Z,65.59
2022-09-25T04:42:59.832Z,65.52
2022-09-25T04:45:34.831Z,65.41
2022-09-25T04:48:07.494Z,65.48
2022-09-25T04:50:40.086Z,65.22
2022-09-25T04:53:12.984Z,65.10
2022-09-25T04:55:46.347Z,64.87
2022-09-25T04:58:18.747Z,64.58
2022-09-25T05:00:51.237Z,64.33
2022-09-25T05:03:23.554Z,64.19
2022-09-25T05:05:55.632Z,63.98
2022-09-25T05:08:27.958Z,63.81
2022-09-25T05:11:00.208Z,63.65
2022-09-25T05:13:32.378Z,63.48
2022-09-25T05:16:04.938Z,63.26
2022-09-25T05:18:37.586Z,62.81
2022-09-25T05:21:09.936Z,62.20
2022-09-25T05:23:42.532Z,61.71
2022-09-25T05:26:14.595Z,61.46
2022-09-25T05:28:50.362Z,61.15
2022-09-25T05:31:22.776Z,61.02
2022-09-25T05:33:55.942Z,60.34
2022-09-25T05:36:28.905Z,59.49
2022-09-25T05:39:01.368Z,58.74
2022-09-25T05:41:34.962Z,57.95
2022-09-25T05:44:09.844Z,57.47
2022-09-25T05:46:42.426Z,57.23
2022-09-25T05:49:14.591Z,56.67
2022-09-25T05:51:48.177Z,56.10
2022-09-25T05:54:20.253Z,55.25
2022-09-25T05:56:52.351Z,54.60
2022-09-25T05:59:24.415Z,53.90
2022-09-25T06:01:56.629Z,53.15
2022-09-25T06:04:28.715Z,52.44
2022-09-25T06:07:02.696Z,51.60
2022-09-25T06:09:34.922Z,50.81
2022-09-25T06:12:07.915Z,50.34
2022-09-25T06:14:41.131Z,50.10
2022-09-25T06:17:15.021Z,49.67
2022-09-25T06:19:47.289Z,48.98
2022-09-25T06:22:19.407Z,48.24
2022-09-25T06:24:51.548Z,47.54
2022-09-25T06:27:23.868Z,47.20
2022-09-25T06:29:55.942Z,46.57
2022-09-25T06:32:28.027Z,45.97
2022-09-25T06:35:00.089Z,45.11
2022-09-25T06:37:32.172Z,44.43
2022-09-25T06:40:04.621Z,43.95
2022-09-25T06:42:37.043Z,43.48
2022-09-25T06:45:11.739Z,42.75
2022-09-25T06:47:43.819Z,42.31
2022-09-25T06:50:16.266Z,41.79
2022-09-25T06:52:48.360Z,41.40
2022-09-25T06:55:20.391Z,41.23
2022-09-25T06:57:52.616Z,41.02
2022-09-25T07:00:24.991Z,40.94
2022-09-25T07:03:15.608Z,40.31
2022-09-25T07:05:48.463Z,39.35
2022-09-25T07:08:22.157Z,38.86
2022-09-25T07:10:56.053Z,38.67
2022-09-25T07:13:32.104Z,38.13
2022-09-25T07:16:06.066Z,37.63
2022-09-25T07:18:38.472Z,37.34
2022-09-25T07:21:12.534Z,36.62
2022-09-25T07:23:45.563Z,35.63
2022-09-25T07:26:22.508Z,34.56
2022-09-25T07:28:58.804Z,34.23
2022-09-25T07:31:33.204Z,33.96
2022-09-25T07:34:09.801Z,33.73
2022-09-25T07:36:43.853Z,33.44
2022-09-25T07:39:18.597Z,33.02
2022-09-25T07:41:51.395Z,32.28
2022-09-25T07:44:37.506Z,31.63
2022-09-25T07:47:13.640Z,31.26
2022-09-25T07:49:46.207Z,30.28
2022-09-25T07:52:18.269Z,29.70
2022-09-25T07:54:50.650Z,29.76
2022-09-25T07:57:22.746Z,29.58
2022-09-25T07:59:54.813Z,29.22
2022-09-25T08:02:27.188Z,29.01
2022-09-25T08:04:59.450Z,28.90
2022-09-25T08:07:31.996Z,28.21
2022-09-25T08:10:04.233Z,27.93
2022-09-25T08:12:37.108Z,26.95
2022-09-25T08:15:11.215Z,26.83
2022-09-25T08:17:43.278Z,26.50
2022-09-25T08:20:15.805Z,25.83
2022-09-25T08:22:48.437Z,25.91
2022-09-25T08:25:21.322Z,26.32
2022-09-25T08:27:53.402Z,27.15
2022-09-25T08:30:26.099Z,27.68
2022-09-25T08:32:58.193Z,28.46
2022-09-25T08:35:30.260Z,29.30
2022-09-25T08:38:02.291Z,29.93
2022-09-25T08:40:36.122Z,30.91
2022-09-25T08:43:09.168Z,31.59
2022-09-25T08:46:03.998Z,32.54
2022-09-25T08:49:00.748Z,32.83
2022-09-25T08:51:35.847Z,33.39
2022-09-25T08:54:08.791Z,34.35
2022-09-25T08:56:41.333Z,34.56
2022-09-25T08:59:26.288Z,34.49
2022-09-25T09:02:03.537Z,34.88
2022-09-25T09:04:42.739Z,34.84
2022-09-25T09:07:28.625Z,34.73
2022-09-25T09:10:08.915Z,34.02
2022-09-25T09:12:45.129Z,34.55
2022-09-25T09:15:29.559Z,34.97
2022-09-25T09:18:06.901Z,35.22
2022-09-25T09:20:45.412Z,34.78
2022-09-25T09:23:21.714Z,35.23
2022-09-25T09:26:02.419Z,35.43
2022-09-25T09:29:03.118Z,35.25
2022-09-25T09:31:45.916Z,34.67
2022-09-25T09:35:05.958Z,33.80
2022-09-25T09:37:50.574Z,34.52
2022-09-25T09:40:34.012Z,34.25
2022-09-25T09:43:16.788Z,33.64
2022-09-25T09:45:55.417Z,33.70
2022-09-25T09:48:35.199Z,33.81
2022-09-25T09:51:13.114Z,33.11
2022-09-25T09:53:53.228Z,33.66
2022-09-25T09:56:28.378Z,32.58
2022-09-25T09:59:03.725Z,32.94
2022-09-25T10:01:42.120Z,32.63
2022-09-25T10:04:17.269Z,32.40
2022-09-25T10:06:52.479Z,32.47
2022-09-25T10:09:26.379Z,32.98
2022-09-25T10:12:03.335Z,33.26
2022-09-25T10:14:42.434Z,33.23
2022-09-25T10:17:15.828Z,33.63
2022-09-25T10:19:53.931Z,34.29
2022-09-25T10:22:29.313Z,33.47
2022-09-25T10:25:03.143Z,33.51
2022-09-25T10:27:37.425Z,33.67
2022-09-25T10:30:18.811Z,33.68
2022-09-25T10:32:58.065Z,33.65
2022-09-25T10:35:41.454Z,34.29
2022-09-25T10:38:32.471Z,35.07
2022-09-25T10:41:07.646Z,35.73
2022-09-25T10:43:54.034Z,34.70
2022-09-25T10:46:54.393Z,34.25
2022-09-25T10:50:00.544Z,34.20
2022-09-25T10:52:45.699Z,33.66
2022-09-25T10:55:28.839Z,34.32
2022-09-25T10:58:13.117Z,34.51
2022-09-25T11:00:56.931Z,34.56
2022-09-25T11:03:34.610Z,34.87
2022-09-25T11:06:11.013Z,35.09
2022-09-25T11:08:43.429Z,35.19
2022-09-25T11:11:22.010Z,35.06
2022-09-25T11:13:58.332Z,34.96
2022-09-25T11:16:48.155Z,35.27
2022-09-25T11:19:25.457Z,35.26
2022-09-25T11:22:07.923Z,34.71
2022-09-25T11:24:51.424Z,35.14
2022-09-25T11:27:31.396Z,35.42
2022-09-25T11:30:07.627Z,35.11
2022-09-25T11:32:50.338Z,35.24
2022-09-25T11:35:49.769Z,34.81
2022-09-25T11:38:49.730Z,34.86
2022-09-25T11:41:29.870Z,35.19
2022-09-25T11:44:12.203Z,35.61
2022-09-25T11:46:54.631Z,35.56
2022-09-25T11:49:31.485Z,35.15
2022-09-25T11:52:16.772Z,35.68
2022-09-25T11:55:21.347Z,35.96
2022-09-25T11:58:02.255Z,36.41
2022-09-25T12:00:41.751Z,36.60
2022-09-25T12:03:27.122Z,36.28
2022-09-25T12:06:29.029Z,35.20
2022-09-25T12:09:15.234Z,35.17
2022-09-25T12:11:56.966Z,34.91
2022-09-25T12:14:36.332Z,35.59
2022-09-25T12:17:15.479Z,35.77
2022-09-25T12:19:56.570Z,35.72
2022-09-25T12:22:38.031Z,36.25
2022-09-25T12:25:24.472Z,36.16
2022-09-25T12:28:04.292Z,35.92
2022-09-25T12:30:46.900Z,36.12
2022-09-25T12:33:32.676Z,36.81
2022-09-25T12:36:12.790Z,37.31
2022-09-25T12:38:55.438Z,37.66
2022-09-25T12:41:35.778Z,38.00
2022-09-25T12:44:22.375Z,37.76
2022-09-25T12:47:02.521Z,37.62
2022-09-25T12:49:38.874Z,37.64
2022-09-25T12:52:15.736Z,37.95
2022-09-25T12:54:56.707Z,38.08
2022-09-25T12:57:34.261Z,38.74
2022-09-25T13:00:25.983Z,39.33
2022-09-25T13:03:05.458Z,38.81
2022-09-25T13:05:45.587Z,38.01
2022-09-25T13:08:23.661Z,38.35
2022-09-25T13:11:00.593Z,38.16
2022-09-25T13:13:38.915Z,38.33
2022-09-25T13:16:13.213Z,38.42
2022-09-25T13:18:50.365Z,38.61
2022-09-25T13:21:33.387Z,38.92
2022-09-25T13:24:12.781Z,39.08
2022-09-25T13:26:52.752Z,39.32
2022-09-25T13:29:28.272Z,39.48
2022-09-25T13:32:08.975Z,39.46
2022-09-25T13:34:43.329Z,39.41
2022-09-25T13:37:17.026Z,39.47
2022-09-25T13:40:08.413Z,39.76
2022-09-25T13:42:44.169Z,40.05
2022-09-25T13:45:34.861Z,40.31
2022-09-25T13:48:15.839Z,40.78
2022-09-25T13:50:51.660Z,41.04
2022-09-25T13:53:34.983Z,41.36
2022-09-25T13:56:30.430Z,41.61
2022-09-25T13:59:32.414Z,42.07
2022-09-25T14:02:34.882Z,42.46
2022-09-25T14:05:08.213Z,42.67
2022-09-25T14:07:44.634Z,42.91
2022-09-25T14:10:18.098Z,43.06
2022-09-25T14:12:54.233Z,43.04
2022-09-25T14:15:33.642Z,43.00
2022-09-25T14:18:09.459Z,43.05
2022-09-25T14:20:45.054Z,42.90
2022-09-25T14:23:24.942Z,42.92
2022-09-25T14:26:06.269Z,43.24
2022-09-25T14:28:47.253Z,43.62
2022-09-25T14:31:55.818Z,43.64
2022-09-25T14:34:56.981Z,43.58
2022-09-25T14:38:07.983Z,43.62
2022-09-25T14:40:48.132Z,43.99
2022-09-25T14:43:40.492Z,44.12
2022-09-25T14:46:18.689Z,44.14
2022-09-25T14:48:55.510Z,44.18
2022-09-25T14:51:32.591Z,44.16
2022-09-25T14:54:09.247Z,44.42
2022-09-25T14:56:41.842Z,44.66
2022-09-25T14:59:19.320Z,44.86
2022-09-25T15:01:53.785Z,44.93
2022-09-25T15:04:34.306Z,44.87
2022-09-25T15:07:18.083Z,45.00
2022-09-25T15:09:55.482Z,45.29
2022-09-25T15:12:30.557Z,45.26
2022-09-25T15:15:08.869Z,45.39
2022-09-25T15:17:49.855Z,45.65
2022-09-25T15:20:24.917Z,45.36
2022-09-25T15:23:00.769Z,45.51
2022-09-25T15:25:40.624Z,45.69
2022-09-25T15:28:19.547Z,45.66
2022-09-25T15:30:58.780Z,45.85
2022-09-25T15:33:34.167Z,46.06
2022-09-25T15:36:16.496Z,46.25
2022-09-25T15:38:56.277Z,46.45
2022-09-25T15:41:29.332Z,46.40
2022-09-25T15:44:19.431Z,46.51
2022-09-25T15:46:57.705Z,46.78
2022-09-25T15:49:32.632Z,46.77
2022-09-25T15:52:13.721Z,47.08
2022-09-25T15:54:49.395Z,47.20
2022-09-25T15:57:30.501Z,47.31
2022-09-25T16:00:27.769Z,47.36
2022-09-25T16:03:24.534Z,47.44
2022-09-25T16:05:57.212Z,47.74
2022-09-25T16:08:33.004Z,48.00
2022-09-25T16:11:21.838Z,47.84
2022-09-25T16:13:55.999Z,48.11
2022-09-25T16:16:30.317Z,48.15
2022-09-25T16:19:22.564Z,48.14
2022-09-25T16:21:55.820Z,48.19
2022-09-25T16:24:30.060Z,48.23
2022-09-25T16:27:05.483Z,48.34
2022-09-25T16:29:40.810Z,48.41
2022-09-25T16:32:21.689Z,48.51
2022-09-25T16:34:59.957Z,48.66
2022-09-25T16:37:36.017Z,48.73
2022-09-25T16:40:21.865Z,48.99
2022-09-25T16:42:55.864Z,49.00
2022-09-25T16:45:31.781Z,49.14
2022-09-25T16:48:24.915Z,49.37
2022-09-25T16:50:59.988Z,49.64
2022-09-25T16:53:33.696Z,49.75
2022-09-25T16:56:06.155Z,49.65
2022-09-25T16:58:38.377Z,49.79
2022-09-25T17:01:12.034Z,49.94
2022-09-25T17:03:54.393Z,50.04
2022-09-25T17:06:30.420Z,50.12
2022-09-25T17:09:02.865Z,50.12
2022-09-25T17:11:35.348Z,50.13
2022-09-25T17:14:17.414Z,50.25
2022-09-25T17:16:49.504Z,50.38
2022-09-25T17:19:22.377Z,50.49
2022-09-25T17:21:58.221Z,50.46
2022-09-25T17:24:31.367Z,50.64
2022-09-25T17:27:04.492Z,50.86
2022-09-25T17:29:37.877Z,50.95
2022-09-25T17:32:17.744Z,51.11
2022-09-25T17:34:50.363Z,51.35
2022-09-25T17:37:22.611Z,51.38
2022-09-25T17:39:57.612Z,51.44
2022-09-25T17:42:31.060Z,51.75
2022-09-25T17:45:03.316Z,51.92
2022-09-25T17:47:35.439Z,51.99
2022-09-25T17:50:08.496Z,51.96
2022-09-25T17:52:41.002Z,52.21
2022-09-25T17:55:20.611Z,52.26
2022-09-25T17:57:52.702Z,52.44
2022-09-25T18:00:25.795Z,52.56
2022-09-25T18:02:57.940Z,52.79
2022-09-25T18:05:31.864Z,52.87
2022-09-25T18:08:11.873Z,52.96
2022-09-25T18:10:53.407Z,53.19
2022-09-25T18:13:26.774Z,53.36
2022-09-25T18:16:01.679Z,53.54
2022-09-25T18:18:48.234Z,53.54
2022-09-25T18:21:38.451Z,53.69
2022-09-25T18:24:10.660Z,53.78
2022-09-25T18:26:43.703Z,53.98
2022-09-25T18:29:19.225Z,53.95
2022-09-25T18:31:52.120Z,54.21
2022-09-25T18:34:26.278Z,54.31
2022-09-25T18:36:58.367Z,54.58
2022-09-25T18:39:30.678Z,54.51
2022-09-25T18:42:02.834Z,54.58
2022-09-25T18:44:41.995Z,54.54
2022-09-25T18:47:15.360Z,54.77
2022-09-25T18:49:48.209Z,54.78
2022-09-25T18:52:20.532Z,54.86
2022-09-25T18:54:53.034Z,54.96
2022-09-25T18:57:25.207Z,55.01
2022-09-25T18:59:58.777Z,55.15
2022-09-25T19:02:33.161Z,55.25
2022-09-25T19:05:06.463Z,55.35
2022-09-25T19:07:39.757Z,55.51
2022-09-25T19:10:13.657Z,55.54
2022-09-25T19:12:46.431Z,55.72
2022-09-25T19:15:18.743Z,55.76
2022-09-25T19:17:50.709Z,55.99
2022-09-25T19:20:23.307Z,56.00
2022-09-25T19:22:55.624Z,56.31
2022-09-25T19:25:27.940Z,56.34
2022-09-25T19:28:00.045Z,56.44
2022-09-25T19:30:32.159Z,56.59
2022-09-25T19:33:04.451Z,56.48
2022-09-25T19:35:36.667Z,56.64
2022-09-25T19:38:12.591Z,56.66
2022-09-25T19:40:45.157Z,56.79
2022-09-25T19:43:17.486Z,56.84
2022-09-25T19:45:53.897Z,57.01
2022-09-25T19:48:26.886Z,57.11
2022-09-25T19:50:58.905Z,57.31
2022-09-25T19:53:31.515Z,57.36
2022-09-25T19:56:04.761Z,57.49
2022-09-25T19:58:38.570Z,57.73
2022-09-25T20:01:15.302Z,57.82
2022-09-25T20:03:48.168Z,58.02
2022-09-25T20:06:20.479Z,58.17
2022-09-25T20:08:57.058Z,58.41
2022-09-25T20:11:30.774Z,58.49
2022-09-25T20:14:04.750Z,58.70
2022-09-25T20:16:37.756Z,58.94
2022-09-25T20:19:10.310Z,58.94
2022-09-25T20:21:43.318Z,59.28
2022-09-25T20:24:15.928Z,59.55
2022-09-25T20:26:48.340Z,59.92
2022-09-25T20:29:22.159Z,60.01
2022-09-25T20:31:54.539Z,60.22
2022-09-25T20:34:26.815Z,60.59
2022-09-25T20:36:58.991Z,60.70
2022-09-25T20:39:32.093Z,61.07
2022-09-25T20:42:04.279Z,61.12
2022-09-25T20:44:36.353Z,61.37
2022-09-25T20:47:08.564Z,61.48
2022-09-25T20:49:40.554Z,61.78
2022-09-25T20:52:12.928Z,61.89
2022-09-25T20:54:45.070Z,62.26
2022-09-25T20:57:18.583Z,62.27
2022-09-25T20:59:50.653Z,62.62
2022-09-25T21:02:22.634Z,62.81
2022-09-25T21:04:55.020Z,63.05
2022-09-25T21:07:27.343Z,63.18
2022-09-25T21:09:59.343Z,63.24
2022-09-25T21:12:32.053Z,63.52
2022-09-25T21:15:04.163Z,63.64
2022-09-25T21:17:36.239Z,63.62
2022-09-25T21:20:09.219Z,63.99
2022-09-25T21:22:42.380Z,64.22
2022-09-25T21:25:14.840Z,64.40
2022-09-25T21:27:46.871Z,64.58
2022-09-25T21:30:19.149Z,64.73
2022-09-25T21:32:51.364Z,64.83
2022-09-25T21:35:23.724Z,65.00
2022-09-25T21:37:55.746Z,64.99
2022-09-25T21:40:27.885Z,65.16
2022-09-25T21:43:00.038Z,65.35
2022-09-25T21:45:32.751Z,65.52
2022-09-25T21:48:06.642Z,65.65
2022-09-25T21:50:38.764Z,65.79
2022-09-25T21:53:10.880Z,65.85
2022-09-25T21:55:43.023Z,65.96
2022-09-25T21:58:15.573Z,66.06
2022-09-25T22:00:47.992Z,66.32
2022-09-25T22:03:20.237Z,66.49
2022-09-25T22:06:01.071Z,66.64
2022-09-25T22:08:34.021Z,66.71
2022-09-25T22:11:07.668Z,66.80
2022-09-25T22:13:42.255Z,67.03
2022-09-25T22:16:16.942Z,67.29
2022-09-25T22:18:51.324Z,67.31
2022-09-25T22:21:25.333Z,67.43
2022-09-25T22:23:58.048Z,67.54
2022-09-25T22:26:30.784Z,67.71
2022-09-25T22:29:02.967Z,67.80
2022-09-25T22:31:36.510Z,67.90
2022-09-25T22:34:10.876Z,68.10
2022-09-25T22:36:42.936Z,68.23
2022-09-25T22:39:18.765Z,68.43
2022-09-25T22:41:54.872Z,68.58
2022-09-25T22:44:27.621Z,68.67
2022-09-25T22:47:03.871Z,68.82
2022-09-25T22:49:36.520Z,68.90
2022-09-25T22:52:08.582Z,68.99
2022-09-25T22:54:40.592Z,69.32
2022-09-25T22:57:12.759Z,69.41
2022-09-25T22:59:44.755Z,69.66
2022-09-25T23:02:17.069Z,69.74
2022-09-25T23:04:52.287Z,69.96
2022-09-25T23:07:24.514Z,70.10
2022-09-25T23:09:56.773Z,70.22
2022-09-25T23:12:30.726Z,70.35
2022-09-25T23:15:02.962Z,70.43
2022-09-25T23:17:35.126Z,70.58
2022-09-25T23:20:08.539Z,70.60
2022-09-25T23:22:40.588Z,70.78
2022-09-25T23:25:13.276Z,71.00
2022-09-25T23:27:45.363Z,70.84
2022-09-25T23:30:18.176Z,70.93
2022-09-25T23:32:50.151Z,70.96
2022-09-25T23:35:22.282Z,71.06
2022-09-25T23:37:54.797Z,71.05
2022-09-25T23:40:27.125Z,71.14
2022-09-25T23:42:59.352Z,71.32
2022-09-25T23:45:31.437Z,71.40
2022-09-25T23:48:03.802Z,71.44
2022-09-25T23:50:35.859Z,71.43
2022-09-25T23:53:08.108Z,71.46
2022-09-25T23:55:42.838Z,71.56
2022-09-25T23:58:15.088Z,71.56
